createdAt,value
2023-05-23T00:02:13.441Z,6.50
2023-05-23T00:04:41.267Z,5.73
2023-05-23T00:07:09.042Z,5.33
2023-05-23T00:09:38.271Z,4.30
2023-05-23T00:12:07.117Z,4.70
2023-05-23T00:14:35.574Z,5.00
2023-05-23T00:17:03.629Z,4.90
2023-05-23T00:19:31.782Z,4.70
2023-05-23T00:21:59.609Z,5.37
2023-05-23T00:24:27.372Z,4.43
2023-05-23T00:26:56.502Z,3.70
2023-05-23T00:29:24.229Z,4.20
2023-05-23T00:31:55.240Z,4.57
2023-05-23T00:34:23.011Z,4.03
2023-05-23T00:36:50.837Z,3.50
2023-05-23T00:39:20.246Z,3.90
2023-05-23T00:41:51.929Z,4.53
2023-05-23T00:44:22.306Z,3.53
2023-05-23T00:46:54.580Z,3.97
2023-05-23T00:49:23.011Z,4.03
2023-05-23T00:51:52.003Z,4.03
2023-05-23T00:54:23.778Z,3.53
2023-05-23T00:56:51.636Z,4.73
2023-05-23T00:59:21.831Z,4.33
2023-05-23T01:01:52.981Z,3.60
2023-05-23T01:04:21.427Z,4.03
2023-05-23T01:06:49.545Z,3.77
2023-05-23T01:09:18.960Z,4.00
2023-05-23T01:11:54.534Z,4.23
2023-05-23T01:14:32.214Z,4.63
2023-05-23T01:17:07.756Z,5.07
2023-05-23T01:19:54.235Z,5.00
2023-05-23T01:22:34.399Z,4.67
2023-05-23T01:25:11.851Z,4.27
2023-05-23T01:27:52.503Z,4.57
2023-05-23T01:30:21.972Z,4.63
2023-05-23T01:32:51.881Z,4.50
2023-05-23T01:35:25.401Z,3.93
2023-05-23T01:37:54.008Z,3.67
2023-05-23T01:40:22.147Z,3.83
2023-05-23T01:42:52.177Z,4.47
2023-05-23T01:45:20.632Z,3.93
2023-05-23T01:47:51.295Z,3.70
2023-05-23T01:50:19.614Z,3.90
2023-05-23T01:52:48.170Z,4.07
2023-05-23T01:55:22.758Z,3.97
2023-05-23T01:57:54.701Z,3.60
2023-05-23T02:00:23.209Z,3.90
2023-05-23T02:02:51.106Z,4.23
2023-05-23T02:05:18.965Z,3.80
2023-05-23T02:07:46.711Z,4.00
2023-05-23T02:10:14.633Z,3.70
2023-05-23T02:12:42.418Z,3.97
2023-05-23T02:15:12.191Z,3.87
2023-05-23T02:17:41.367Z,4.73
2023-05-23T02:20:11.151Z,3.90
2023-05-23T02:22:39.924Z,3.60
2023-05-23T02:25:09.059Z,3.53
2023-05-23T02:27:37.061Z,3.50
2023-05-23T02:30:05.272Z,3.33
2023-05-23T02:32:36.566Z,3.70
2023-05-23T02:35:05.527Z,3.73
2023-05-23T02:37:33.367Z,3.47
2023-05-23T02:40:01.480Z,3.60
2023-05-23T02:42:29.243Z,3.90
2023-05-23T02:44:56.972Z,3.27
2023-05-23T02:47:24.704Z,3.33
2023-05-23T02:49:53.904Z,3.67
2023-05-23T02:52:22.068Z,3.70
2023-05-23T02:54:49.868Z,3.50
2023-05-23T02:57:18.146Z,3.20
2023-05-23T02:59:45.943Z,3.40
2023-05-23T03:02:13.752Z,3.80
2023-05-23T03:04:41.605Z,3.10
2023-05-23T03:07:24.101Z,3.57
2023-05-23T03:09:55.883Z,4.20
2023-05-23T03:12:23.696Z,3.33
2023-05-23T03:14:51.844Z,4.00
2023-05-23T03:17:19.806Z,3.83
2023-05-23T03:19:47.620Z,3.53
2023-05-23T03:22:16.783Z,3.53
2023-05-23T03:24:44.542Z,3.20
2023-05-23T03:27:12.294Z,2.80
2023-05-23T03:29:40.165Z,2.77
2023-05-23T03:32:08.264Z,2.90
2023-05-23T03:34:36.611Z,2.77
2023-05-23T03:37:04.549Z,2.77
2023-05-23T03:39:33.868Z,2.70
2023-05-23T03:42:01.631Z,2.90
2023-05-23T03:44:29.346Z,2.97
2023-05-23T03:46:57.144Z,2.57
2023-05-23T03:49:25.117Z,2.87
2023-05-23T03:51:52.867Z,3.30
2023-05-23T03:54:20.608Z,3.10
2023-05-23T03:56:49.692Z,2.77
2023-05-23T03:59:17.452Z,3.10
2023-05-23T04:01:45.278Z,3.47
2023-05-23T04:04:13.138Z,2.37
2023-05-23T04:06:40.895Z,2.63
2023-05-23T04:09:09.050Z,2.57
2023-05-23T04:11:36.811Z,2.40
2023-05-23T04:14:05.920Z,3.30
2023-05-23T04:16:36.326Z,2.70
2023-05-23T04:19:05.910Z,2.80
2023-05-23T04:21:33.975Z,2.80
2023-05-23T04:24:02.898Z,3.37
2023-05-23T04:26:30.969Z,3.30
2023-05-23T04:28:59.220Z,3.17
2023-05-23T04:31:28.453Z,3.30
2023-05-23T04:33:56.298Z,3.70
2023-05-23T04:36:25.862Z,4.07
2023-05-23T04:38:53.906Z,4.23
2023-05-23T04:41:23.602Z,3.73
2023-05-23T04:43:54.590Z,3.80
2023-05-23T04:46:26.880Z,3.83
2023-05-23T04:48:56.485Z,3.90
2023-05-23T04:51:25.122Z,3.80
2023-05-23T04:53:53.097Z,3.90
2023-05-23T04:56:22.695Z,4.27
2023-05-23T04:58:50.557Z,4.00
2023-05-23T05:01:18.394Z,4.13
2023-05-23T05:03:47.429Z,3.83
2023-05-23T05:06:17.214Z,3.97
2023-05-23T05:08:45.148Z,3.80
2023-05-23T05:11:12.959Z,3.87
2023-05-23T05:13:40.830Z,3.90
2023-05-23T05:16:11.075Z,4.00
2023-05-23T05:18:40.417Z,3.50
2023-05-23T05:21:08.453Z,3.50
2023-05-23T05:23:37.649Z,3.73
2023-05-23T05:26:06.262Z,3.77
2023-05-23T05:28:34.246Z,3.83
2023-05-23T05:31:05.088Z,3.67
2023-05-23T05:33:36.097Z,3.13
2023-05-23T05:36:04.280Z,3.30
2023-05-23T05:38:32.148Z,3.50
2023-05-23T05:41:01.264Z,3.07
2023-05-23T05:43:29.112Z,3.80
2023-05-23T05:45:56.921Z,3.70
2023-05-23T05:48:24.730Z,3.87
2023-05-23T05:50:52.485Z,3.70
2023-05-23T05:53:20.322Z,3.13
2023-05-23T05:55:48.248Z,3.63
2023-05-23T05:58:17.528Z,3.07
2023-05-23T06:00:45.540Z,3.13
2023-05-23T06:03:14.233Z,3.30
2023-05-23T06:05:42.573Z,3.10
2023-05-23T06:08:10.438Z,2.63
2023-05-23T06:10:39.855Z,2.40
2023-05-23T06:13:07.888Z,2.67
2023-05-23T06:15:37.120Z,2.30
2023-05-23T06:18:05.013Z,2.27
2023-05-23T06:20:32.978Z,2.23
2023-05-23T06:23:01.868Z,2.00
2023-05-23T06:25:29.617Z,1.83
2023-05-23T06:27:57.379Z,1.70
2023-05-23T06:30:25.188Z,1.43
2023-05-23T06:32:54.352Z,1.17
2023-05-23T06:35:22.100Z,1.67
2023-05-23T06:37:49.892Z,1.17
2023-05-23T06:40:17.729Z,1.57
2023-05-23T06:42:45.560Z,1.30
2023-05-23T06:45:15.737Z,1.53
2023-05-23T06:47:45.731Z,1.70
2023-05-23T06:50:15.098Z,1.50
2023-05-23T06:52:43.819Z,1.67
2023-05-23T06:55:14.467Z,1.70
2023-05-23T06:57:42.393Z,1.70
2023-05-23T07:00:11.512Z,1.50
2023-05-23T07:02:39.421Z,1.53
2023-05-23T07:05:07.869Z,1.70
2023-05-23T07:07:37.077Z,1.63
2023-05-23T07:10:05.272Z,1.53
2023-05-23T07:12:34.865Z,1.90
2023-05-23T07:15:02.969Z,1.27
2023-05-23T07:17:30.805Z,1.67
2023-05-23T07:20:04.698Z,1.80
2023-05-23T07:22:32.830Z,1.67
2023-05-23T07:25:01.964Z,1.90
2023-05-23T07:27:30.474Z,1.70
2023-05-23T07:29:58.576Z,1.80
2023-05-23T07:32:26.432Z,1.63
2023-05-23T07:34:54.236Z,3.03
2023-05-23T07:37:22.061Z,1.80
2023-05-23T07:39:49.829Z,2.17
2023-05-23T07:42:18.993Z,2.40
2023-05-23T07:44:46.767Z,2.33
2023-05-23T07:47:14.567Z,1.87
2023-05-23T07:49:42.380Z,2.10
2023-05-23T07:52:10.224Z,1.70
2023-05-23T07:54:37.985Z,1.63
2023-05-23T07:57:07.404Z,1.63
2023-05-23T07:59:36.590Z,1.80
2023-05-23T08:02:04.752Z,2.03
2023-05-23T08:04:33.909Z,2.03
2023-05-23T08:07:05.463Z,1.97
2023-05-23T08:09:33.933Z,2.23
2023-05-23T08:12:01.659Z,1.93
2023-05-23T08:14:42.273Z,2.23
2023-05-23T08:17:19.563Z,1.87
2023-05-23T08:19:47.572Z,2.00
2023-05-23T08:22:15.444Z,2.30
2023-05-23T08:24:43.193Z,2.00
2023-05-23T08:27:11.110Z,2.27
2023-05-23T08:29:38.941Z,2.10
2023-05-23T08:32:07.008Z,1.97
2023-05-23T08:34:36.178Z,1.70
2023-05-23T08:37:04.226Z,1.97
2023-05-23T08:39:32.030Z,1.80
2023-05-23T08:41:59.888Z,2.30
2023-05-23T08:44:27.979Z,2.20
2023-05-23T08:46:58.370Z,2.17
2023-05-23T08:49:26.586Z,2.17
2023-05-23T08:52:02.530Z,2.50
2023-05-23T08:54:30.671Z,1.80
2023-05-23T08:56:58.558Z,1.80
2023-05-23T08:59:27.572Z,2.23
2023-05-23T09:01:57.126Z,1.90
2023-05-23T09:04:25.008Z,2.27
2023-05-23T09:06:52.799Z,1.90
2023-05-23T09:09:22.078Z,1.77
2023-05-23T09:11:50.285Z,2.20
2023-05-23T09:14:18.176Z,1.73
2023-05-23T09:16:49.289Z,2.00
2023-05-23T09:19:17.311Z,1.90
2023-05-23T09:21:45.862Z,2.33
2023-05-23T09:24:13.930Z,1.53
2023-05-23T09:26:43.078Z,1.70
2023-05-23T09:29:10.863Z,1.70
2023-05-23T09:31:38.615Z,1.57
2023-05-23T09:34:07.005Z,2.50
2023-05-23T09:36:36.536Z,1.90
2023-05-23T09:39:06.510Z,1.80
2023-05-23T09:41:35.279Z,1.47
2023-05-23T09:44:09.829Z,1.90
2023-05-23T09:46:39.058Z,2.17
2023-05-23T09:49:17.179Z,1.50
2023-05-23T09:51:45.525Z,1.70
2023-05-23T09:54:13.281Z,1.50
2023-05-23T09:56:43.585Z,2.23
2023-05-23T09:59:16.352Z,1.67
2023-05-23T10:01:48.963Z,2.00
2023-05-23T10:04:21.710Z,1.67
2023-05-23T10:06:54.919Z,1.73
2023-05-23T10:09:24.479Z,2.47
2023-05-23T10:12:36.946Z,1.90
2023-05-23T10:15:08.683Z,1.80
2023-05-23T10:17:46.823Z,1.90
2023-05-23T10:20:17.977Z,1.90
2023-05-23T10:22:46.001Z,2.20
2023-05-23T10:25:15.128Z,1.90
2023-05-23T10:27:44.161Z,2.10
2023-05-23T10:30:14.515Z,1.80
2023-05-23T10:32:43.750Z,1.60
2023-05-23T10:35:18.985Z,1.60
2023-05-23T10:37:54.039Z,1.87
2023-05-23T10:40:29.179Z,1.80
2023-05-23T10:43:04.184Z,1.53
2023-05-23T10:45:42.353Z,1.77
2023-05-23T10:48:22.618Z,2.00
2023-05-23T10:51:04.905Z,1.80
2023-05-23T10:53:33.185Z,1.63
2023-05-23T10:56:00.991Z,2.07
2023-05-23T10:58:32.016Z,1.60
2023-05-23T11:01:03.455Z,1.73
2023-05-23T11:03:36.320Z,1.50
2023-05-23T11:06:05.358Z,1.80
2023-05-23T11:08:48.584Z,1.63
2023-05-23T11:11:17.053Z,1.43
2023-05-23T11:14:00.459Z,1.50
2023-05-23T11:16:32.129Z,2.00
2023-05-23T11:19:29.471Z,1.37
2023-05-23T11:22:01.266Z,2.17
2023-05-23T11:24:49.298Z,1.73
2023-05-23T11:27:20.055Z,1.70
2023-05-23T11:29:58.550Z,1.63
2023-05-23T11:32:29.608Z,1.20
2023-05-23T11:35:00.104Z,1.60
2023-05-23T11:37:31.883Z,1.70
2023-05-23T11:40:00.209Z,2.03
2023-05-23T11:42:28.234Z,1.70
2023-05-23T11:44:56.107Z,2.13
2023-05-23T11:47:24.022Z,1.60
2023-05-23T11:49:53.655Z,1.70
2023-05-23T11:52:21.516Z,2.23
2023-05-23T11:54:49.275Z,1.97
2023-05-23T11:57:17.070Z,2.40
2023-05-23T11:59:45.837Z,1.73
2023-05-23T12:02:13.886Z,1.67
2023-05-23T12:04:41.820Z,1.60
2023-05-23T12:07:11.011Z,1.77
2023-05-23T12:09:45.760Z,1.90
2023-05-23T12:12:14.279Z,1.40
2023-05-23T12:14:44.813Z,1.50
2023-05-23T12:17:13.908Z,1.63
2023-05-23T12:19:46.957Z,1.80
2023-05-23T12:22:16.172Z,1.57
2023-05-23T12:24:47.830Z,2.13
2023-05-23T12:27:18.563Z,1.70
2023-05-23T12:29:52.723Z,1.73
2023-05-23T12:32:20.735Z,1.80
2023-05-23T12:34:50.662Z,1.50
2023-05-23T12:37:20.722Z,1.70
2023-05-23T12:39:48.837Z,2.10
2023-05-23T12:42:16.710Z,1.50
2023-05-23T12:44:46.105Z,1.60
2023-05-23T12:47:14.042Z,1.37
2023-05-23T12:49:41.949Z,1.60
2023-05-23T12:52:09.839Z,1.70
2023-05-23T12:54:39.014Z,1.90
2023-05-23T12:57:06.747Z,1.40
2023-05-23T12:59:34.466Z,1.50
2023-05-23T13:02:02.738Z,1.20
2023-05-23T13:04:32.174Z,1.70
2023-05-23T13:07:00.547Z,1.37
2023-05-23T13:09:28.371Z,1.13
2023-05-23T13:11:58.851Z,1.67
2023-05-23T13:14:26.753Z,1.37
2023-05-23T13:16:54.586Z,1.60
2023-05-23T13:19:22.403Z,1.77
2023-05-23T13:21:50.495Z,1.37
2023-05-23T13:24:18.707Z,1.30
2023-05-23T13:26:46.483Z,1.60
2023-05-23T13:29:15.756Z,1.33
2023-05-23T13:31:43.721Z,1.23
2023-05-23T13:34:11.551Z,1.93
2023-05-23T13:36:39.445Z,1.60
2023-05-23T13:39:07.455Z,1.13
2023-05-23T13:41:35.234Z,1.27
2023-05-23T13:44:03.021Z,1.33
2023-05-23T13:46:32.232Z,1.30
2023-05-23T13:49:00.083Z,2.33
2023-05-23T13:51:27.979Z,1.70
2023-05-23T13:53:55.782Z,1.53
2023-05-23T13:56:24.420Z,1.33
2023-05-23T13:58:52.234Z,1.40
2023-05-23T14:01:20.151Z,1.17
2023-05-23T14:03:49.369Z,1.73
2023-05-23T14:06:17.782Z,1.53
2023-05-23T14:08:45.637Z,1.50
2023-05-23T14:11:13.408Z,0.77
2023-05-23T14:13:41.262Z,1.57
2023-05-23T14:16:09.112Z,1.37
2023-05-23T14:18:37.085Z,1.47
2023-05-23T14:21:06.387Z,1.53
2023-05-23T14:23:34.167Z,1.50
2023-05-23T14:26:02.042Z,1.43
2023-05-23T14:28:29.783Z,1.80
2023-05-23T14:30:59.079Z,1.27
2023-05-23T14:33:27.191Z,1.87
2023-05-23T14:35:55.024Z,1.23
2023-05-23T14:38:24.377Z,1.47
2023-05-23T14:40:52.175Z,1.03
2023-05-23T14:43:19.976Z,1.60
2023-05-23T14:45:47.931Z,1.23
2023-05-23T14:48:15.853Z,0.80
2023-05-23T14:50:43.617Z,1.33
2023-05-23T14:53:11.419Z,1.40
2023-05-23T14:55:40.914Z,1.03
2023-05-23T14:58:08.889Z,1.57
2023-05-23T15:00:36.616Z,1.40
2023-05-23T15:03:04.851Z,1.43
2023-05-23T15:05:32.886Z,1.20
2023-05-23T15:08:00.682Z,1.63
2023-05-23T15:10:28.499Z,1.57
2023-05-23T15:12:57.952Z,1.57
2023-05-23T15:15:27.237Z,1.60
2023-05-23T15:17:55.011Z,1.67
2023-05-23T15:20:22.837Z,1.17
2023-05-23T15:22:50.805Z,1.20
2023-05-23T15:25:26.967Z,1.30
2023-05-23T15:28:03.309Z,1.20
2023-05-23T15:30:31.124Z,1.80
2023-05-23T15:33:01.347Z,1.20
2023-05-23T15:35:29.609Z,2.00
2023-05-23T15:37:57.451Z,1.40
2023-05-23T15:40:25.178Z,1.20
2023-05-23T15:42:52.932Z,1.43
2023-05-23T15:45:22.277Z,1.47
2023-05-23T15:47:50.163Z,1.50
2023-05-23T15:50:18.934Z,0.90
2023-05-23T15:52:46.804Z,1.23
2023-05-23T15:55:14.559Z,1.20
2023-05-23T15:57:42.496Z,1.57
2023-05-23T16:00:11.392Z,1.70
2023-05-23T16:02:40.669Z,1.33
2023-05-23T16:05:09.189Z,1.10
2023-05-23T16:07:37.048Z,1.17
2023-05-23T16:10:05.468Z,1.73
2023-05-23T16:12:33.358Z,1.50
2023-05-23T16:15:02.351Z,1.47
2023-05-23T16:17:30.236Z,1.30
2023-05-23T16:20:00.414Z,1.40
2023-05-23T16:22:28.277Z,1.07
2023-05-23T16:24:56.037Z,1.30
2023-05-23T16:27:24.072Z,1.37
2023-05-23T16:29:52.088Z,1.23
2023-05-23T16:32:19.948Z,1.33
2023-05-23T16:34:52.878Z,1.17
2023-05-23T16:37:23.886Z,1.33
2023-05-23T16:39:51.726Z,1.30
2023-05-23T16:42:19.569Z,1.40
2023-05-23T16:44:47.426Z,1.40
2023-05-23T16:47:15.347Z,1.20
2023-05-23T16:49:43.264Z,1.03
2023-05-23T16:52:11.238Z,1.07
2023-05-23T16:54:40.863Z,1.63
2023-05-23T16:57:08.812Z,1.17
2023-05-23T16:59:36.734Z,0.80
2023-05-23T17:02:04.773Z,1.30
2023-05-23T17:04:32.515Z,0.93
2023-05-23T17:07:00.270Z,1.20
2023-05-23T17:09:28.007Z,1.33
2023-05-23T17:11:57.109Z,1.07
2023-05-23T17:14:24.894Z,1.20
2023-05-23T17:16:52.715Z,1.00
2023-05-23T17:19:20.822Z,1.00
2023-05-23T17:21:49.298Z,1.37
2023-05-23T17:24:17.171Z,1.10
2023-05-23T17:26:45.040Z,1.27
2023-05-23T17:29:14.160Z,1.00
2023-05-23T17:31:42.031Z,0.90
2023-05-23T17:34:12.042Z,1.20
2023-05-23T17:36:40.159Z,1.50
2023-05-23T17:39:08.683Z,0.90
2023-05-23T17:41:36.447Z,1.33
2023-05-23T17:44:04.389Z,1.23
2023-05-23T17:46:33.556Z,1.20
2023-05-23T17:49:01.427Z,1.27
2023-05-23T17:51:29.208Z,1.27
2023-05-23T17:53:57.014Z,0.80
2023-05-23T17:56:25.360Z,1.17
2023-05-23T17:58:53.221Z,1.00
2023-05-23T18:01:21.088Z,1.10
2023-05-23T18:03:50.426Z,1.40
2023-05-23T18:06:18.313Z,1.07
2023-05-23T18:08:46.105Z,1.20
2023-05-23T18:11:14.182Z,1.30
2023-05-23T18:13:42.029Z,1.20
2023-05-23T18:16:09.941Z,1.50
2023-05-23T18:18:37.666Z,1.43
2023-05-23T18:21:07.257Z,1.40
2023-05-23T18:23:35.097Z,1.30
2023-05-23T18:26:03.226Z,1.50
2023-05-23T18:28:31.120Z,1.47
2023-05-23T18:30:58.915Z,1.30
2023-05-23T18:33:27.697Z,1.33
2023-05-23T18:35:55.610Z,1.37
2023-05-23T18:38:24.928Z,1.20
2023-05-23T18:40:52.732Z,1.27
2023-05-23T18:43:21.069Z,1.73
2023-05-23T18:45:48.875Z,1.50
2023-05-23T18:48:16.740Z,1.53
2023-05-23T18:50:44.894Z,1.17
2023-05-23T18:53:12.802Z,1.50
2023-05-23T18:55:41.992Z,1.33
2023-05-23T18:58:09.763Z,1.20
2023-05-23T19:00:37.588Z,1.07
2023-05-23T19:03:05.843Z,1.40
2023-05-23T19:05:33.760Z,1.30
2023-05-23T19:08:01.856Z,1.23
2023-05-23T19:10:29.904Z,1.40
2023-05-23T19:12:59.012Z,1.30
2023-05-23T19:15:26.871Z,1.60
2023-05-23T19:17:55.089Z,1.03
2023-05-23T19:20:22.968Z,1.23
2023-05-23T19:22:52.281Z,1.53
2023-05-23T19:25:21.734Z,1.47
2023-05-23T19:27:49.636Z,1.23
2023-05-23T19:30:19.180Z,1.33
2023-05-23T19:32:47.097Z,1.40
2023-05-23T19:35:16.889Z,1.30
2023-05-23T19:37:45.236Z,1.43
2023-05-23T19:40:13.836Z,1.50
2023-05-23T19:42:41.915Z,1.30
2023-05-23T19:45:10.320Z,1.40
2023-05-23T19:47:39.634Z,1.30
2023-05-23T19:50:08.295Z,1.80
2023-05-23T19:52:36.048Z,1.37
2023-05-23T19:55:04.178Z,1.53
2023-05-23T19:57:32.425Z,1.30
2023-05-23T20:00:00.384Z,1.57
2023-05-23T20:02:29.014Z,1.03
2023-05-23T20:04:58.234Z,1.53
2023-05-23T20:07:26.026Z,1.37
2023-05-23T20:09:53.805Z,1.47
2023-05-23T20:12:21.658Z,1.40
2023-05-23T20:14:49.537Z,1.27
2023-05-23T20:17:17.315Z,1.60
2023-05-23T20:19:45.177Z,1.50
2023-05-23T20:22:14.427Z,1.40
2023-05-23T20:24:42.254Z,1.43
2023-05-23T20:27:10.089Z,1.20
2023-05-23T20:29:37.849Z,1.43
2023-05-23T20:32:06.648Z,1.23
2023-05-23T20:34:34.417Z,1.37
2023-05-23T20:37:03.496Z,1.43
2023-05-23T20:39:33.001Z,1.50
2023-05-23T20:42:01.138Z,1.47
2023-05-23T20:44:29.067Z,1.20
2023-05-23T20:46:57.684Z,1.43
2023-05-23T20:49:26.901Z,1.40
2023-05-23T20:51:54.718Z,1.50
2023-05-23T20:54:22.611Z,1.53
2023-05-23T20:56:53.843Z,1.43
2023-05-23T20:59:21.688Z,1.80
2023-05-23T21:01:49.469Z,1.50
2023-05-23T21:04:18.804Z,1.40
2023-05-23T21:06:47.112Z,1.40
2023-05-23T21:09:16.139Z,1.20
2023-05-23T21:11:44.046Z,1.27
2023-05-23T21:14:13.898Z,1.73
2023-05-23T21:16:41.796Z,1.53
2023-05-23T21:19:09.927Z,1.30
2023-05-23T21:21:37.718Z,1.70
2023-05-23T21:24:06.462Z,1.37
2023-05-23T21:26:34.260Z,1.37
2023-05-23T21:29:02.028Z,1.47
2023-05-23T21:31:40.892Z,1.20
2023-05-23T21:34:22.266Z,1.33
2023-05-23T21:36:51.427Z,1.60
2023-05-23T21:39:19.268Z,1.40
2023-05-23T21:41:47.053Z,1.80
2023-05-23T21:44:15.671Z,1.50
2023-05-23T21:46:45.182Z,1.30
2023-05-23T21:49:13.197Z,1.40
2023-05-23T21:51:40.920Z,1.43
2023-05-23T21:54:08.769Z,1.50
2023-05-23T21:56:36.611Z,2.00
2023-05-23T21:59:04.529Z,1.63
2023-05-23T22:01:32.481Z,1.67
2023-05-23T22:04:01.828Z,1.50
2023-05-23T22:06:29.982Z,1.70
2023-05-23T22:08:57.768Z,1.80
2023-05-23T22:11:25.880Z,1.67
2023-05-23T22:13:53.636Z,1.43
2023-05-23T22:16:22.172Z,1.63
2023-05-23T22:18:52.137Z,1.50
2023-05-23T22:21:21.388Z,1.80
2023-05-23T22:23:49.112Z,1.53
2023-05-23T22:26:17.643Z,1.37
2023-05-23T22:28:46.115Z,1.60
2023-05-23T22:31:14.648Z,1.33
2023-05-23T22:33:42.881Z,1.23
2023-05-23T22:36:11.298Z,1.47
2023-05-23T22:38:40.474Z,1.40
2023-05-23T22:41:08.226Z,1.57
2023-05-23T22:43:37.203Z,1.60
2023-05-23T22:46:05.047Z,1.73
2023-05-23T22:48:33.728Z,1.67
2023-05-23T22:51:02.590Z,1.83
2023-05-23T22:53:31.177Z,1.63
2023-05-23T22:56:00.327Z,1.60
2023-05-23T22:58:28.534Z,1.70
2023-05-23T23:00:56.323Z,1.80
2023-05-23T23:03:24.276Z,1.33
2023-05-23T23:05:52.122Z,1.50
2023-05-23T23:08:20.313Z,1.70
2023-05-23T23:10:48.156Z,1.57
2023-05-23T23:13:17.300Z,1.50
2023-05-23T23:15:45.351Z,1.60
2023-05-23T23:18:13.777Z,1.77
2023-05-23T23:20:42.092Z,1.67
2023-05-23T23:23:10.062Z,1.67
2023-05-23T23:25:37.833Z,1.80
2023-05-23T23:28:05.662Z,2.20
2023-05-23T23:30:34.728Z,1.70
2023-05-23T23:33:02.615Z,1.50
2023-05-23T23:35:30.435Z,1.67
2023-05-23T23:37:58.229Z,1.50
2023-05-23T23:40:26.013Z,1.37
2023-05-23T23:42:53.817Z,2.07
2023-05-23T23:45:21.986Z,1.67
2023-05-23T23:47:51.124Z,1.53
2023-05-23T23:50:19.028Z,1.93
2023-05-23T23:52:47.152Z,1.57
2023-05-23T23:55:14.938Z,1.80
2023-05-23T23:57:42.764Z,1.70
